createdAt,value
2022-11-18T00:00:52.815Z,57.40
2022-11-18T00:03:19.275Z,57.40
2022-11-18T00:05:45.721Z,57.40
2022-11-18T00:08:12.255Z,57.40
2022-11-18T00:10:38.728Z,57.40
2022-11-18T00:13:05.485Z,57.30
2022-11-18T00:15:32.013Z,57.30
2022-11-18T00:17:58.461Z,57.40
2022-11-18T00:20:24.931Z,57.50
2022-11-18T00:22:51.406Z,57.30
2022-11-18T00:25:17.872Z,57.10
2022-11-18T00:27:44.340Z,57.30
2022-11-18T00:30:10.811Z,57.30
2022-11-18T00:32:37.329Z,57.20
2022-11-18T00:35:03.772Z,57.30
2022-11-18T00:37:30.255Z,57.30
2022-11-18T00:39:56.728Z,57.20
2022-11-18T00:42:23.242Z,57.20
2022-11-18T00:44:49.740Z,57.30
2022-11-18T00:47:16.196Z,57.30
2022-11-18T00:49:45.655Z,57.20
2022-11-18T00:52:12.116Z,57.20
2022-11-18T00:54:38.575Z,57.30
2022-11-18T00:57:05.035Z,57.30
2022-11-18T00:59:31.490Z,57.20
2022-11-18T01:01:57.989Z,57.20
2022-11-18T01:04:24.448Z,57.30
2022-11-18T01:06:50.907Z,57.30
2022-11-18T01:09:17.595Z,57.30
2022-11-18T01:11:44.290Z,57.30
2022-11-18T01:14:10.771Z,57.30
2022-11-18T01:16:37.237Z,57.20
2022-11-18T01:19:03.692Z,57.20
2022-11-18T01:21:31.049Z,57.30
2022-11-18T01:23:57.531Z,57.30
2022-11-18T01:26:24.044Z,57.30
2022-11-18T01:28:52.311Z,57.20
2022-11-18T01:31:18.782Z,57.30
2022-11-18T01:33:45.247Z,57.40
2022-11-18T01:36:11.712Z,57.30
2022-11-18T01:38:40.290Z,57.30
2022-11-18T01:41:06.774Z,57.30
2022-11-18T01:43:33.248Z,57.30
2022-11-18T01:45:59.742Z,57.20
2022-11-18T01:48:26.274Z,57.30
2022-11-18T01:50:52.752Z,57.20
2022-11-18T01:53:19.239Z,57.80
2022-11-18T01:55:45.713Z,57.20
2022-11-18T01:58:12.203Z,57.30
2022-11-18T02:00:38.687Z,57.30
2022-11-18T02:03:05.162Z,57.10
2022-11-18T02:05:31.636Z,57.20
2022-11-18T02:07:58.100Z,57.30
2022-11-18T02:10:24.562Z,57.30
2022-11-18T02:12:51.032Z,57.90
2022-11-18T02:15:17.527Z,57.30
2022-11-18T02:17:44.019Z,57.30
2022-11-18T02:20:11.596Z,57.20
2022-11-18T02:22:38.095Z,57.40
2022-11-18T02:25:04.555Z,57.30
2022-11-18T02:27:31.100Z,57.30
2022-11-18T02:29:57.575Z,57.20
2022-11-18T02:32:24.023Z,57.80
2022-11-18T02:34:50.510Z,57.30
2022-11-18T02:37:16.962Z,57.30
2022-11-18T02:39:43.438Z,57.30
2022-11-18T02:42:09.910Z,57.30
2022-11-18T02:44:36.385Z,57.30
2022-11-18T02:47:02.847Z,57.40
2022-11-18T02:49:29.301Z,57.40
2022-11-18T02:51:55.736Z,57.30
2022-11-18T02:54:22.287Z,57.20
2022-11-18T02:56:48.756Z,57.80
2022-11-18T02:59:15.529Z,57.30
2022-11-18T03:01:42.292Z,57.30
2022-11-18T03:04:08.775Z,57.80
2022-11-18T03:06:35.230Z,57.30
2022-11-18T03:09:01.691Z,57.30
2022-11-18T03:11:28.193Z,57.20
2022-11-18T03:13:54.652Z,57.40
2022-11-18T03:16:21.120Z,57.30
2022-11-18T03:18:47.598Z,57.30
2022-11-18T03:21:14.056Z,57.30
2022-11-18T03:23:40.530Z,57.20
2022-11-18T03:26:07.022Z,57.30
2022-11-18T03:28:33.531Z,57.30
2022-11-18T03:30:59.997Z,57.30
2022-11-18T03:33:29.283Z,57.30
2022-11-18T03:35:55.758Z,57.30
2022-11-18T03:38:22.221Z,57.30
2022-11-18T03:40:48.736Z,57.40
2022-11-18T03:43:15.215Z,57.30
2022-11-18T03:45:41.674Z,57.30
2022-11-18T03:48:08.115Z,57.20
2022-11-18T03:50:36.897Z,57.20
2022-11-18T03:53:03.351Z,57.30
2022-11-18T03:55:29.837Z,57.40
2022-11-18T03:57:56.322Z,57.30
2022-11-18T04:00:22.913Z,57.30
2022-11-18T04:02:49.363Z,57.30
2022-11-18T04:05:15.844Z,57.30
2022-11-18T04:07:42.360Z,57.30
2022-11-18T04:10:08.850Z,57.20
2022-11-18T04:12:35.324Z,57.30
2022-11-18T04:15:01.801Z,57.20
2022-11-18T04:17:28.248Z,57.20
2022-11-18T04:19:54.732Z,57.20
2022-11-18T04:22:21.215Z,57.30
2022-11-18T04:24:47.668Z,57.30
2022-11-18T04:27:14.295Z,57.30
2022-11-18T04:29:40.753Z,57.30
2022-11-18T04:32:07.225Z,57.20
2022-11-18T04:34:33.684Z,57.40
2022-11-18T04:37:00.151Z,57.40
2022-11-18T04:39:26.656Z,57.30
2022-11-18T04:41:53.116Z,57.30
2022-11-18T04:44:19.580Z,57.30
2022-11-18T04:46:46.036Z,57.20
2022-11-18T04:49:12.502Z,57.40
2022-11-18T04:51:38.974Z,57.30
2022-11-18T04:54:05.461Z,57.30
2022-11-18T04:56:31.925Z,57.30
2022-11-18T04:58:58.388Z,57.30
2022-11-18T05:01:24.957Z,57.30
2022-11-18T05:03:51.438Z,57.30
2022-11-18T05:06:17.924Z,57.90
2022-11-18T05:08:44.390Z,57.30
2022-11-18T05:11:10.852Z,57.40
2022-11-18T05:13:37.328Z,57.40
2022-11-18T05:16:03.805Z,57.40
2022-11-18T05:18:30.296Z,57.30
2022-11-18T05:20:56.815Z,57.30
2022-11-18T05:23:23.284Z,57.30
2022-11-18T05:25:49.754Z,57.30
2022-11-18T05:28:18.342Z,57.30
2022-11-18T05:30:44.825Z,57.30
2022-11-18T05:33:11.362Z,57.20
2022-11-18T05:35:37.854Z,57.30
2022-11-18T05:38:04.336Z,57.40
2022-11-18T05:40:30.812Z,57.40
2022-11-18T05:42:57.292Z,57.40
2022-11-18T05:45:23.798Z,57.30
2022-11-18T05:47:50.268Z,57.40
2022-11-18T05:50:21.123Z,57.30
2022-11-18T05:52:47.976Z,57.40
2022-11-18T05:55:14.466Z,57.40
2022-11-18T05:57:40.939Z,57.40
2022-11-18T06:00:07.405Z,57.40
2022-11-18T06:02:33.961Z,57.50
2022-11-18T06:05:00.477Z,57.40
2022-11-18T06:07:27.014Z,57.40
2022-11-18T06:09:53.533Z,57.40
2022-11-18T06:12:19.990Z,57.40
2022-11-18T06:14:46.453Z,57.40
2022-11-18T06:17:12.910Z,57.50
2022-11-18T06:19:39.380Z,57.30
2022-11-18T06:22:05.869Z,57.40
2022-11-18T06:24:32.327Z,57.40
2022-11-18T06:26:58.787Z,57.40
2022-11-18T06:29:28.001Z,57.40
2022-11-18T06:31:54.764Z,57.50
2022-11-18T06:34:24.067Z,57.60
2022-11-18T06:36:50.532Z,57.60
2022-11-18T06:39:17.312Z,57.60
2022-11-18T06:41:44.037Z,57.70
2022-11-18T06:44:10.543Z,57.60
2022-11-18T06:46:37.023Z,57.80
2022-11-18T06:49:03.473Z,57.60
2022-11-18T06:51:29.958Z,57.80
2022-11-18T06:53:56.427Z,57.80
2022-11-18T06:56:22.904Z,57.80
2022-11-18T06:58:49.529Z,57.80
2022-11-18T07:01:16.097Z,57.80
2022-11-18T07:03:42.618Z,58.00
2022-11-18T07:06:09.081Z,57.90
2022-11-18T07:08:35.560Z,57.80
2022-11-18T07:11:02.060Z,57.80
2022-11-18T07:13:28.526Z,57.70
2022-11-18T07:15:54.977Z,57.90
2022-11-18T07:18:21.655Z,58.00
2022-11-18T07:20:48.190Z,58.00
2022-11-18T07:25:54.988Z,58.40
2022-11-18T07:28:21.538Z,58.20
2022-11-18T07:30:48.038Z,58.10
2022-11-18T07:33:14.498Z,57.90
2022-11-18T07:35:40.962Z,57.80
2022-11-18T07:38:07.430Z,57.90
2022-11-18T07:40:33.882Z,57.70
2022-11-18T07:43:00.356Z,57.70
2022-11-18T07:45:26.864Z,57.70
2022-11-18T07:47:53.342Z,57.80
2022-11-18T07:50:19.808Z,58.00
2022-11-18T07:52:46.282Z,57.90
2022-11-18T07:55:12.771Z,58.10
2022-11-18T07:57:39.235Z,58.00
2022-11-18T08:00:05.702Z,58.00
2022-11-18T08:02:32.173Z,58.00
2022-11-18T08:04:58.696Z,58.20
2022-11-18T08:07:25.189Z,58.40
2022-11-18T08:09:51.720Z,58.30
2022-11-18T08:12:18.214Z,58.40
2022-11-18T08:14:44.667Z,58.70
2022-11-18T08:17:11.153Z,58.70
2022-11-18T08:19:37.605Z,58.60
2022-11-18T08:22:04.060Z,58.40
2022-11-18T08:24:30.533Z,58.60
2022-11-18T08:26:57.012Z,58.40
2022-11-18T08:29:25.361Z,58.40
2022-11-18T08:31:52.633Z,58.60
2022-11-18T08:34:19.111Z,58.70
2022-11-18T08:36:45.605Z,58.70
2022-11-18T08:39:12.094Z,59.00
2022-11-18T08:41:38.564Z,59.00
2022-11-18T08:44:05.030Z,58.90
2022-11-18T08:46:31.485Z,59.00
2022-11-18T08:48:57.972Z,59.20
2022-11-18T08:51:24.457Z,59.10
2022-11-18T08:53:50.924Z,59.10
2022-11-18T08:56:17.395Z,59.10
2022-11-18T08:58:43.882Z,59.00
2022-11-18T09:01:10.556Z,59.00
2022-11-18T09:03:37.106Z,59.10
2022-11-18T09:06:03.568Z,59.30
2022-11-18T09:08:30.239Z,59.20
2022-11-18T09:10:56.711Z,59.30
2022-11-18T09:13:49.732Z,59.20
2022-11-18T09:16:09.635Z,59.10
2022-11-18T09:18:36.089Z,58.90
2022-11-18T09:21:02.553Z,58.80
2022-11-18T09:23:29.041Z,58.60
2022-11-18T09:25:55.532Z,59.00
2022-11-18T09:28:22.006Z,59.00
2022-11-18T09:30:48.552Z,59.00
2022-11-18T09:33:20.269Z,58.80
2022-11-18T09:35:47.232Z,59.00
2022-11-18T09:38:13.751Z,59.00
2022-11-18T09:40:40.264Z,59.00
2022-11-18T09:43:06.771Z,59.10
2022-11-18T09:45:33.228Z,58.90
2022-11-18T09:47:59.745Z,58.80
2022-11-18T09:53:14.857Z,58.60
2022-11-18T09:55:41.338Z,59.00
2022-11-18T09:58:07.837Z,59.10
2022-11-18T10:00:34.315Z,59.30
2022-11-18T10:03:00.796Z,59.90
2022-11-18T10:05:27.280Z,60.50
2022-11-18T10:07:53.744Z,60.30
2022-11-18T10:10:20.264Z,60.20
2022-11-18T10:12:46.759Z,60.00
2022-11-18T10:15:13.226Z,59.70
2022-11-18T10:17:39.682Z,59.80
2022-11-18T10:20:06.141Z,60.00
2022-11-18T10:22:32.613Z,59.90
2022-11-18T10:24:59.112Z,59.60
2022-11-18T10:27:25.581Z,59.50
2022-11-18T10:29:52.069Z,59.40
2022-11-18T10:32:18.551Z,59.70
2022-11-18T10:34:45.034Z,59.70
2022-11-18T10:37:11.523Z,59.80
2022-11-18T10:39:38.079Z,59.80
2022-11-18T10:42:04.576Z,59.70
2022-11-18T10:44:31.079Z,59.80
2022-11-18T10:46:57.524Z,59.90
2022-11-18T10:49:24.008Z,59.90
2022-11-18T10:51:50.469Z,59.70
2022-11-18T10:54:17.229Z,60.00
2022-11-18T10:56:44.002Z,59.70
2022-11-18T10:59:10.513Z,59.70
2022-11-18T11:01:37.063Z,59.30
2022-11-18T11:04:03.585Z,59.10
2022-11-18T11:06:30.183Z,59.20
2022-11-18T11:08:56.643Z,59.40
2022-11-18T11:11:23.125Z,59.50
2022-11-18T11:13:49.578Z,59.40
2022-11-18T11:16:16.060Z,60.00
2022-11-18T11:18:42.524Z,59.40
2022-11-18T11:21:08.980Z,59.40
2022-11-18T11:23:35.460Z,59.50
2022-11-18T11:28:50.646Z,59.40
2022-11-18T11:31:17.100Z,59.60
2022-11-18T11:33:43.582Z,59.70
2022-11-18T11:36:10.227Z,59.60
2022-11-18T11:38:36.763Z,59.50
2022-11-18T11:41:03.278Z,59.40
2022-11-18T11:43:29.727Z,59.30
2022-11-18T11:48:36.546Z,60.10
2022-11-18T11:51:04.738Z,59.70
2022-11-18T11:53:31.675Z,59.70
2022-11-18T11:55:58.150Z,59.80
2022-11-18T11:58:24.604Z,59.80
2022-11-18T12:00:51.063Z,59.80
2022-11-18T12:03:17.594Z,59.50
2022-11-18T12:05:44.112Z,59.40
2022-11-18T12:08:10.658Z,59.60
2022-11-18T12:10:37.271Z,59.40
2022-11-18T12:13:03.737Z,59.60
2022-11-18T12:15:30.266Z,59.60
2022-11-18T12:17:56.745Z,59.50
2022-11-18T12:20:23.237Z,59.50
2022-11-18T12:22:49.718Z,59.30
2022-11-18T12:25:16.201Z,59.60
2022-11-18T12:27:42.699Z,59.90
2022-11-18T12:30:09.171Z,59.70
2022-11-18T12:32:35.649Z,59.80
2022-11-18T12:35:02.140Z,59.70
2022-11-18T12:37:28.615Z,60.00
2022-11-18T12:39:55.071Z,59.90
2022-11-18T12:42:21.526Z,59.80
2022-11-18T12:44:48.020Z,59.80
2022-11-18T12:47:14.490Z,59.70
2022-11-18T12:49:40.945Z,59.70
2022-11-18T12:52:07.994Z,59.90
2022-11-18T12:54:34.462Z,60.00
2022-11-18T12:57:00.970Z,59.90
2022-11-18T12:59:27.509Z,59.80
2022-11-18T13:01:54.018Z,59.90
2022-11-18T13:04:20.518Z,60.10
2022-11-18T13:06:46.979Z,60.10
2022-11-18T13:09:13.432Z,59.90
2022-11-18T13:11:39.984Z,59.70
2022-11-18T13:14:06.579Z,59.70
2022-11-18T13:16:37.853Z,59.80
2022-11-18T13:19:04.684Z,59.90
2022-11-18T13:21:31.139Z,59.70
2022-11-18T13:26:37.993Z,59.40
2022-11-18T13:29:04.481Z,59.30
2022-11-18T13:31:31.074Z,59.30
2022-11-18T13:33:57.550Z,59.60
2022-11-18T13:36:24.037Z,59.90
2022-11-18T13:38:50.514Z,59.60
2022-11-18T13:41:20.683Z,59.60
2022-11-18T13:43:51.421Z,59.70
2022-11-18T13:46:20.288Z,59.80
2022-11-18T13:48:46.754Z,59.70
2022-11-18T13:51:13.258Z,59.80
2022-11-18T13:53:39.719Z,59.90
2022-11-18T13:56:06.184Z,59.80
2022-11-18T13:58:40.108Z,59.60
2022-11-18T14:01:11.300Z,59.70
2022-11-18T14:03:37.786Z,59.50
2022-11-18T14:06:04.284Z,59.50
2022-11-18T14:08:30.788Z,59.50
2022-11-18T14:10:57.242Z,59.30
2022-11-18T14:16:04.057Z,59.10
2022-11-18T14:18:30.518Z,59.20
2022-11-18T14:20:57.000Z,59.20
2022-11-18T14:23:23.463Z,59.10
2022-11-18T14:25:50.063Z,59.10
2022-11-18T14:28:16.538Z,59.10
2022-11-18T14:30:43.054Z,59.40
2022-11-18T14:33:09.529Z,59.30
2022-11-18T14:35:35.984Z,59.20
2022-11-18T14:38:35.265Z,59.20
2022-11-18T14:40:48.898Z,59.30
2022-11-18T14:43:15.378Z,59.00
2022-11-18T14:45:44.024Z,59.00
2022-11-18T14:48:10.515Z,59.00
2022-11-18T14:50:37.006Z,59.10
2022-11-18T14:53:03.481Z,59.00
2022-11-18T14:55:29.970Z,58.70
2022-11-18T14:57:56.465Z,58.80
2022-11-18T15:00:22.941Z,58.80
2022-11-18T15:02:50.007Z,58.60
2022-11-18T15:05:16.540Z,58.70
2022-11-18T15:07:43.152Z,58.70
2022-11-18T15:10:09.673Z,58.90
2022-11-18T15:12:36.152Z,58.80
2022-11-18T15:15:02.602Z,59.20
2022-11-18T15:17:29.084Z,59.30
2022-11-18T15:19:55.548Z,59.40
2022-11-18T15:22:22.064Z,59.30
2022-11-18T15:24:48.534Z,59.20
2022-11-18T15:27:15.019Z,59.30
2022-11-18T15:29:41.478Z,59.20
2022-11-18T15:32:07.975Z,59.10
2022-11-18T15:34:34.461Z,58.90
2022-11-18T15:37:00.981Z,58.90
2022-11-18T15:39:27.495Z,58.80
2022-11-18T15:41:53.948Z,58.90
2022-11-18T15:44:20.872Z,58.90
2022-11-18T15:46:47.774Z,59.10
2022-11-18T15:49:14.296Z,58.70
2022-11-18T15:51:40.832Z,58.50
2022-11-18T15:54:07.305Z,58.60
2022-11-18T15:56:33.767Z,58.60
2022-11-18T15:59:00.261Z,58.30
2022-11-18T16:01:26.849Z,58.60
2022-11-18T16:03:53.415Z,58.50
2022-11-18T16:06:19.872Z,58.60
2022-11-18T16:08:46.359Z,58.60
2022-11-18T16:11:12.891Z,58.50
2022-11-18T16:13:39.357Z,58.40
2022-11-18T16:16:05.844Z,58.40
2022-11-18T16:18:35.387Z,58.40
2022-11-18T16:21:05.917Z,58.20
2022-11-18T16:23:32.410Z,58.10
2022-11-18T16:25:58.931Z,58.10
2022-11-18T16:28:25.396Z,58.30
2022-11-18T16:30:51.867Z,58.10
2022-11-18T16:33:18.334Z,58.10
2022-11-18T16:35:44.813Z,58.00
2022-11-18T16:38:11.292Z,58.10
2022-11-18T16:40:37.777Z,58.00
2022-11-18T16:43:04.237Z,57.90
2022-11-18T16:45:30.687Z,57.90
2022-11-18T16:47:57.199Z,58.00
2022-11-18T16:50:23.759Z,58.30
2022-11-18T16:52:50.266Z,58.40
2022-11-18T16:55:16.817Z,58.30
2022-11-18T16:57:43.312Z,58.40
2022-11-18T17:00:09.786Z,58.50
2022-11-18T17:02:36.436Z,58.50
2022-11-18T17:05:02.989Z,58.40
2022-11-18T17:07:33.966Z,58.60
2022-11-18T17:10:03.491Z,58.50
2022-11-18T17:12:29.978Z,58.60
2022-11-18T17:14:56.446Z,58.70
2022-11-18T17:17:22.935Z,58.40
2022-11-18T17:19:49.414Z,58.50
2022-11-18T17:22:18.957Z,58.50
2022-11-18T17:24:45.454Z,58.70
2022-11-18T17:27:11.952Z,58.50
2022-11-18T17:29:38.438Z,58.50
2022-11-18T17:34:45.360Z,58.50
2022-11-18T17:37:11.819Z,58.40
2022-11-18T17:39:38.312Z,58.40
2022-11-18T17:42:04.791Z,58.30
2022-11-18T17:44:31.270Z,58.30
2022-11-18T17:46:57.816Z,58.30
2022-11-18T17:49:24.572Z,58.40
2022-11-18T17:51:51.079Z,58.60
2022-11-18T17:54:17.870Z,58.60
2022-11-18T17:56:44.574Z,58.50
2022-11-18T17:59:11.071Z,58.10
2022-11-18T18:01:37.674Z,58.60
2022-11-18T18:06:44.542Z,58.10
2022-11-18T18:09:11.014Z,58.10
2022-11-18T18:11:37.479Z,58.10
2022-11-18T18:14:03.928Z,57.90
2022-11-18T18:16:30.401Z,58.00
2022-11-18T18:18:56.887Z,58.20
2022-11-18T18:21:23.391Z,57.90
2022-11-18T18:23:49.878Z,57.90
2022-11-18T18:26:16.354Z,57.90
2022-11-18T18:28:42.822Z,58.00
2022-11-18T18:31:09.280Z,58.00
2022-11-18T18:33:35.750Z,57.90
2022-11-18T18:36:02.218Z,57.90
2022-11-18T18:38:28.678Z,58.00
2022-11-18T18:40:55.124Z,58.10
2022-11-18T18:43:21.597Z,58.00
2022-11-18T18:45:48.099Z,58.10
2022-11-18T18:48:14.558Z,57.90
2022-11-18T18:50:41.099Z,57.80
2022-11-18T18:53:07.570Z,58.10
2022-11-18T18:55:34.074Z,58.10
2022-11-18T18:58:00.568Z,58.10
2022-11-18T19:00:27.058Z,58.00
2022-11-18T19:02:53.525Z,58.10
2022-11-18T19:05:25.872Z,58.10
2022-11-18T19:08:05.488Z,57.90
2022-11-18T19:10:32.553Z,57.90
2022-11-18T19:12:59.071Z,57.80
2022-11-18T19:15:25.570Z,57.70
2022-11-18T19:17:52.183Z,57.90
2022-11-18T19:20:18.727Z,57.80
2022-11-18T19:22:45.188Z,57.80
2022-11-18T19:25:11.659Z,57.80
2022-11-18T19:27:38.110Z,57.80
2022-11-18T19:30:04.662Z,57.90
2022-11-18T19:32:31.157Z,57.80
2022-11-18T19:34:57.642Z,57.70
2022-11-18T19:37:24.129Z,57.80
2022-11-18T19:39:50.583Z,57.80
2022-11-18T19:42:17.058Z,57.80
2022-11-18T19:44:43.520Z,57.70
2022-11-18T19:47:09.974Z,57.80
2022-11-18T19:49:36.437Z,57.70
2022-11-18T19:52:02.923Z,57.60
2022-11-18T19:54:29.404Z,57.50
2022-11-18T19:56:55.863Z,57.80
2022-11-18T19:59:22.349Z,57.90
2022-11-18T20:01:48.867Z,57.70
2022-11-18T20:04:15.383Z,57.60
2022-11-18T20:06:41.882Z,57.50
2022-11-18T20:09:08.353Z,57.60
2022-11-18T20:11:34.846Z,57.40
2022-11-18T20:14:01.308Z,57.30
2022-11-18T20:16:30.622Z,57.40
2022-11-18T20:18:57.080Z,57.50
2022-11-18T20:21:23.595Z,57.60
2022-11-18T20:23:50.077Z,57.50
2022-11-18T20:26:16.554Z,57.50
2022-11-18T20:28:43.029Z,57.50
2022-11-18T20:31:09.498Z,57.40
2022-11-18T20:33:35.991Z,57.30
2022-11-18T20:36:02.478Z,57.30
2022-11-18T20:38:28.963Z,57.50
2022-11-18T20:40:55.418Z,57.50
2022-11-18T20:43:21.892Z,57.30
2022-11-18T20:45:48.469Z,57.30
2022-11-18T20:50:55.265Z,57.50
2022-11-18T20:53:21.740Z,57.20
2022-11-18T20:55:48.214Z,57.00
2022-11-18T20:58:14.677Z,57.00
2022-11-18T21:00:41.195Z,56.80
2022-11-18T21:03:07.696Z,57.00
2022-11-18T21:05:34.168Z,57.10
2022-11-18T21:08:00.623Z,57.10
2022-11-18T21:10:27.105Z,57.10
2022-11-18T21:12:53.585Z,57.00
2022-11-18T21:15:20.043Z,56.90
2022-11-18T21:17:46.513Z,57.00
2022-11-18T21:20:12.977Z,57.10
2022-11-18T21:22:39.433Z,57.10
2022-11-18T21:25:05.880Z,56.90
2022-11-18T21:27:32.337Z,56.90
2022-11-18T21:29:58.821Z,56.80
2022-11-18T21:32:25.293Z,56.80
2022-11-18T21:34:51.768Z,56.80
2022-11-18T21:37:18.226Z,56.80
2022-11-18T21:39:44.688Z,56.70
2022-11-18T21:42:11.145Z,56.60
2022-11-18T21:44:37.631Z,56.50
2022-11-18T21:47:04.105Z,56.70
2022-11-18T21:49:30.563Z,56.50
2022-11-18T21:51:57.056Z,56.40
2022-11-18T21:54:23.573Z,56.40
2022-11-18T21:56:50.023Z,56.40
2022-11-18T21:59:17.001Z,56.50
2022-11-18T22:01:43.662Z,56.50
2022-11-18T22:04:10.120Z,56.50
2022-11-18T22:06:36.560Z,56.30
2022-11-18T22:09:03.026Z,56.20
2022-11-18T22:11:36.876Z,56.30
2022-11-18T22:14:03.359Z,56.40
2022-11-18T22:16:29.843Z,56.20
2022-11-18T22:18:59.081Z,56.00
2022-11-18T22:21:27.763Z,56.10
2022-11-18T22:23:54.443Z,56.10
2022-11-18T22:26:20.923Z,56.00
2022-11-18T22:28:47.430Z,55.80
2022-11-18T22:31:13.893Z,55.90
2022-11-18T22:33:40.363Z,55.70
2022-11-18T22:36:06.845Z,55.80
2022-11-18T22:38:33.312Z,55.90
2022-11-18T22:40:59.786Z,55.90
2022-11-18T22:43:28.313Z,55.80
2022-11-18T22:45:54.792Z,55.80
2022-11-18T22:48:21.253Z,55.70
2022-11-18T22:50:47.725Z,55.70
2022-11-18T22:53:14.187Z,55.70
2022-11-18T22:55:40.667Z,55.50
2022-11-18T22:58:07.149Z,55.40
2022-11-18T23:00:33.634Z,55.40
2022-11-18T23:03:00.120Z,55.30
2022-11-18T23:05:26.616Z,55.20
2022-11-18T23:07:53.122Z,55.30
2022-11-18T23:10:19.666Z,55.20
2022-11-18T23:12:47.811Z,55.20
2022-11-18T23:15:14.459Z,55.20
2022-11-18T23:17:40.949Z,55.20
2022-11-18T23:20:07.581Z,55.20
2022-11-18T23:22:34.045Z,55.20
2022-11-18T23:25:00.496Z,55.00
2022-11-18T23:27:27.019Z,55.20
2022-11-18T23:29:53.468Z,54.90
2022-11-18T23:32:20.438Z,54.90
2022-11-18T23:34:46.930Z,54.80
2022-11-18T23:37:13.388Z,54.80
2022-11-18T23:39:39.881Z,54.90
2022-11-18T23:42:06.395Z,54.80
2022-11-18T23:44:32.855Z,54.80
2022-11-18T23:46:59.326Z,54.80
2022-11-18T23:49:25.802Z,54.80
2022-11-18T23:51:52.271Z,54.70
2022-11-18T23:54:18.729Z,54.50
2022-11-18T23:56:45.215Z,54.50
2022-11-18T23:59:11.670Z,54.30
